Decoded Metar for KSVE (SUSANVILLE MUNI in CA, USA) (IATA:SVE) | Meteo·Mobile Aviation Weather
aviador You're here:

KSVE Decoded Metar

SUSANVILLE MUNI in CA, USA
Report Time2019-05-19 22:15:00
UTC Time2019-05-19 22:29:24
Flight Rules vfr VFR
Wind220° at 10 kt
W.Decomp.*RWY 25: 6.8 kt HW 7.3 kt LCW
RWY 29: 0.5 kt HW 10 kt LCW
Visibility9999 m
Phenomena:N/A
Clouds:Few 060 Hf
Broken 065 Hf
Expected CloudBase > 6,000 ft AGL from Temp-Dew spread
Ceiling6,500 ft
Temp12°C (ISA +5)
Dew Point-3°C (35% RH)
AAT6.0°C
QNH1005 hPa
Density Alt5,105 ft
Elevation4,144 ft
Report Wrong Elevation
Raw Report
KSVE 192215Z AUTO 22010KT 030V040 10SM FEW060 BKN065 12/M03 A2969
RMK AO2=

Extra information for KSVE:More info

Airport Information Weather charts Add Link Nearby Venues Social comments

AIRNAV info for KSVE